sensor_id;sensor_type;location;lat;lon;timestamp;P1;durP1;ratioP1;P2;durP2;ratioP2
15498;SDS011;7851;52.260;6.030;2022-11-20T00:02:53;9.8;;;8.4;;
15498;SDS011;7851;52.260;6.030;2022-11-20T00:02:54;9.6;;;8.3;;
15498;SDS011;7851;52.260;6.030;2022-11-20T00:02:54;9.3;;;8.4;;
15498;SDS011;7851;52.260;6.030;2022-11-20T00:03:15;9.7;;;8.3;;
15498;SDS011;7851;52.260;6.030;2022-11-20T00:04:15;8.7;;;7.8;;
15498;SDS011;7851;52.260;6.030;2022-11-20T00:05:15;10.2;;;7.6;;
15498;SDS011;7851;52.260;6.030;2022-11-20T00:06:16;10.6;;;8.8;;
15498;SDS011;7851;52.260;6.030;2022-11-20T00:07:15;11.7;;;8.2;;
15498;SDS011;7851;52.260;6.030;2022-11-20T00:08:15;13.9;;;9.4;;
15498;SDS011;7851;52.260;6.030;2022-11-20T00:09:15;10;;;8.5;;
15498;SDS011;7851;52.260;6.030;2022-11-20T00:10:16;9.6;;;8.6;;
15498;SDS011;7851;52.260;6.030;2022-11-20T00:11:16;9.5;;;8.6;;
15498;SDS011;7851;52.260;6.030;2022-11-20T00:12:15;9.6;;;8.6;;
15498;SDS011;7851;52.260;6.030;2022-11-20T00:13:15;9.8;;;8.8;;
15498;SDS011;7851;52.260;6.030;2022-11-20T00:14:15;8.7;;;7.9;;
15498;SDS011;7851;52.260;6.030;2022-11-20T00:15:16;12.4;;;8.8;;
15498;SDS011;7851;52.260;6.030;2022-11-20T00:16:17;8.1;;;7.4;;
15498;SDS011;7851;52.260;6.030;2022-11-20T00:17:15;8.9;;;8.1;;
15498;SDS011;7851;52.260;6.030;2022-11-20T00:18:15;11.9;;;9.2;;
15498;SDS011;7851;52.260;6.030;2022-11-20T00:19:15;18.2;;;8.6;;
15498;SDS011;7851;52.260;6.030;2022-11-20T00:20:15;11;;;8.7;;
15498;SDS011;7851;52.260;6.030;2022-11-20T00:21:16;11.2;;;9.3;;
15498;SDS011;7851;52.260;6.030;2022-11-20T00:22:18;9.9;;;8.9;;
15498;SDS011;7851;52.260;6.030;2022-11-20T00:23:18;12.1;;;8.4;;
15498;SDS011;7851;52.260;6.030;2022-11-20T00:24:18;9.2;;;8.2;;
15498;SDS011;7851;52.260;6.030;2022-11-20T00:25:17;12.8;;;8.9;;
15498;SDS011;7851;52.260;6.030;2022-11-20T00:26:18;8.6;;;7.7;;
15498;SDS011;7851;52.260;6.030;2022-11-20T00:27:17;9.4;;;8.1;;
15498;SDS011;7851;52.260;6.030;2022-11-20T00:28:18;8.9;;;8;;
15498;SDS011;7851;52.260;6.030;2022-11-20T00:29:17;8.8;;;7.9;;
15498;SDS011;7851;52.260;6.030;2022-11-20T00:30:18;9.5;;;8.5;;
15498;SDS011;7851;52.260;6.030;2022-11-20T00:31:18;9.6;;;8.6;;
15498;SDS011;7851;52.260;6.030;2022-11-20T00:32:17;8.8;;;7.9;;
15498;SDS011;7851;52.260;6.030;2022-11-20T00:33:17;9;;;8.1;;
15498;SDS011;7851;52.260;6.030;2022-11-20T00:34:17;10;;;9;;
15498;SDS011;7851;52.260;6.030;2022-11-20T00:35:20;9.7;;;7.9;;
15498;SDS011;7851;52.260;6.030;2022-11-20T00:36:20;10.8;;;8.3;;
15498;SDS011;7851;52.260;6.030;2022-11-20T00:37:20;10;;;8.3;;
15498;SDS011;7851;52.260;6.030;2022-11-20T00:38:23;12.5;;;9.2;;
15498;SDS011;7851;52.260;6.030;2022-11-20T00:39:23;9.9;;;8.8;;
15498;SDS011;7851;52.260;6.030;2022-11-20T00:40:26;12;;;8.8;;
15498;SDS011;7851;52.260;6.030;2022-11-20T00:41:26;8.8;;;7.9;;
15498;SDS011;7851;52.260;6.030;2022-11-20T00:42:26;10.4;;;8.9;;
15498;SDS011;7851;52.260;6.030;2022-11-20T00:43:26;10.3;;;8.1;;
15498;SDS011;7851;52.260;6.030;2022-11-20T00:44:26;9.9;;;8.2;;
15498;SDS011;7851;52.260;6.030;2022-11-20T00:45:26;8.9;;;7.9;;
15498;SDS011;7851;52.260;6.030;2022-11-20T00:46:29;9.9;;;8.8;;
15498;SDS011;7851;52.260;6.030;2022-11-20T00:47:29;11;;;8.8;;
15498;SDS011;7851;52.260;6.030;2022-11-20T00:48:30;9.9;;;8.4;;
15498;SDS011;7851;52.260;6.030;2022-11-20T00:49:29;8.4;;;7.7;;
15498;SDS011;7851;52.260;6.030;2022-11-20T00:50:29;10.9;;;8.7;;
15498;SDS011;7851;52.260;6.030;2022-11-20T00:51:29;10.1;;;8.6;;
15498;SDS011;7851;52.260;6.030;2022-11-20T00:52:29;10.2;;;9.1;;
15498;SDS011;7851;52.260;6.030;2022-11-20T00:53:29;10.2;;;9.2;;
15498;SDS011;7851;52.260;6.030;2022-11-20T00:54:29;10.3;;;8.8;;
15498;SDS011;7851;52.260;6.030;2022-11-20T00:55:29;8.6;;;7.8;;
15498;SDS011;7851;52.260;6.030;2022-11-20T00:56:29;9.1;;;8.1;;
15498;SDS011;7851;52.260;6.030;2022-11-20T00:57:29;10.5;;;8.4;;
15498;SDS011;7851;52.260;6.030;2022-11-20T00:58:30;9.5;;;8.3;;
15498;SDS011;7851;52.260;6.030;2022-11-20T00:59:30;10.9;;;8.5;;
15498;SDS011;7851;52.260;6.030;2022-11-20T01:00:29;11.7;;;8.8;;
15498;SDS011;7851;52.260;6.030;2022-11-20T01:01:29;8.8;;;8;;
15498;SDS011;7851;52.260;6.030;2022-11-20T01:02:29;11.7;;;8.8;;
15498;SDS011;7851;52.260;6.030;2022-11-20T01:03:30;10.1;;;8.6;;
15498;SDS011;7851;52.260;6.030;2022-11-20T01:04:29;9.6;;;8.7;;
15498;SDS011;7851;52.260;6.030;2022-11-20T01:05:33;9.2;;;8.3;;
15498;SDS011;7851;52.260;6.030;2022-11-20T01:06:30;9.9;;;8.9;;
15498;SDS011;7851;52.260;6.030;2022-11-20T01:07:29;9.8;;;8.1;;
15498;SDS011;7851;52.260;6.030;2022-11-20T01:08:30;11.3;;;9.5;;
15498;SDS011;7851;52.260;6.030;2022-11-20T01:09:29;11;;;8.8;;
15498;SDS011;7851;52.260;6.030;2022-11-20T01:10:29;10.6;;;8.2;;
15498;SDS011;7851;52.260;6.030;2022-11-20T01:11:30;12.1;;;9;;
15498;SDS011;7851;52.260;6.030;2022-11-20T01:12:29;11.9;;;8.7;;
15498;SDS011;7851;52.260;6.030;2022-11-20T01:13:29;8.3;;;7.6;;
15498;SDS011;7851;52.260;6.030;2022-11-20T01:14:29;8.9;;;8;;
15498;SDS011;7851;52.260;6.030;2022-11-20T01:15:29;10.6;;;8.1;;
15498;SDS011;7851;52.260;6.030;2022-11-20T01:16:30;9.9;;;8.8;;
15498;SDS011;7851;52.260;6.030;2022-11-20T01:17:30;9.7;;;8.1;;
15498;SDS011;7851;52.260;6.030;2022-11-20T01:18:29;17.4;;;9.3;;
15498;SDS011;7851;52.260;6.030;2022-11-20T01:19:29;14.2;;;9.1;;
15498;SDS011;7851;52.260;6.030;2022-11-20T01:20:29;9.8;;;8.8;;
15498;SDS011;7851;52.260;6.030;2022-11-20T01:21:30;9.7;;;8.2;;
15498;SDS011;7851;52.260;6.030;2022-11-20T01:22:29;9;;;8;;
15498;SDS011;7851;52.260;6.030;2022-11-20T01:23:30;9.7;;;7.9;;
15498;SDS011;7851;52.260;6.030;2022-11-20T01:24:29;9.4;;;8.2;;
15498;SDS011;7851;52.260;6.030;2022-11-20T01:25:29;9.2;;;7.8;;
15498;SDS011;7851;52.260;6.030;2022-11-20T01:26:30;11.2;;;9.3;;
15498;SDS011;7851;52.260;6.030;2022-11-20T01:27:29;9.2;;;7.8;;
15498;SDS011;7851;52.260;6.030;2022-11-20T01:28:29;9;;;8;;
15498;SDS011;7851;52.260;6.030;2022-11-20T01:29:29;8;;;7.2;;
15498;SDS011;7851;52.260;6.030;2022-11-20T01:30:29;9.2;;;7.6;;
15498;SDS011;7851;52.260;6.030;2022-11-20T01:31:30;8.7;;;7.8;;
15498;SDS011;7851;52.260;6.030;2022-11-20T01:32:31;9.2;;;7.5;;
15498;SDS011;7851;52.260;6.030;2022-11-20T01:33:29;8;;;7.3;;
15498;SDS011;7851;52.260;6.030;2022-11-20T01:34:29;9.5;;;8.1;;
15498;SDS011;7851;52.260;6.030;2022-11-20T01:35:29;10.7;;;8.3;;
15498;SDS011;7851;52.260;6.030;2022-11-20T01:36:30;10.2;;;8.6;;
15498;SDS011;7851;52.260;6.030;2022-11-20T01:37:29;9.5;;;8.5;;
15498;SDS011;7851;52.260;6.030;2022-11-20T01:38:29;8.9;;;8;;
15498;SDS011;7851;52.260;6.030;2022-11-20T01:39:29;9.2;;;8.3;;
15498;SDS011;7851;52.260;6.030;2022-11-20T01:40:29;14.9;;;9.1;;
15498;SDS011;7851;52.260;6.030;2022-11-20T01:41:30;8.5;;;7.7;;
15498;SDS011;7851;52.260;6.030;2022-11-20T01:42:29;10.5;;;7.6;;
15498;SDS011;7851;52.260;6.030;2022-11-20T01:43:29;8.9;;;8;;
15498;SDS011;7851;52.260;6.030;2022-11-20T01:45:50;8.8;;;7.6;;
15498;SDS011;7851;52.260;6.030;2022-11-20T01:46:30;12.9;;;8.5;;
15498;SDS011;7851;52.260;6.030;2022-11-20T01:47:30;9.1;;;8.2;;
15498;SDS011;7851;52.260;6.030;2022-11-20T01:48:31;11.5;;;8.9;;
15498;SDS011;7851;52.260;6.030;2022-11-20T01:49:31;12.6;;;9;;
15498;SDS011;7851;52.260;6.030;2022-11-20T01:50:29;9.4;;;8;;
15498;SDS011;7851;52.260;6.030;2022-11-20T01:51:30;8.9;;;7.9;;
15498;SDS011;7851;52.260;6.030;2022-11-20T01:52:30;9.3;;;8.3;;
15498;SDS011;7851;52.260;6.030;2022-11-20T01:53:30;8.7;;;7.8;;
15498;SDS011;7851;52.260;6.030;2022-11-20T01:54:30;8.7;;;7.9;;
15498;SDS011;7851;52.260;6.030;2022-11-20T01:55:30;8.6;;;7.6;;
15498;SDS011;7851;52.260;6.030;2022-11-20T01:56:29;9.4;;;8.4;;
15498;SDS011;7851;52.260;6.030;2022-11-20T01:57:29;11.2;;;9.5;;
15498;SDS011;7851;52.260;6.030;2022-11-20T01:58:32;9.4;;;8.3;;
15498;SDS011;7851;52.260;6.030;2022-11-20T01:59:29;9.6;;;8.1;;
15498;SDS011;7851;52.260;6.030;2022-11-20T02:00:29;9.7;;;7.9;;
15498;SDS011;7851;52.260;6.030;2022-11-20T02:01:29;8.8;;;7.9;;
15498;SDS011;7851;52.260;6.030;2022-11-20T02:02:29;11.5;;;9;;
15498;SDS011;7851;52.260;6.030;2022-11-20T02:03:29;12;;;8.9;;
15498;SDS011;7851;52.260;6.030;2022-11-20T02:04:29;11.8;;;9.2;;
15498;SDS011;7851;52.260;6.030;2022-11-20T02:05:31;12.5;;;9.2;;
15498;SDS011;7851;52.260;6.030;2022-11-20T02:06:30;15.3;;;8.6;;
15498;SDS011;7851;52.260;6.030;2022-11-20T02:07:29;10.3;;;8.5;;
15498;SDS011;7851;52.260;6.030;2022-11-20T02:08:29;9;;;7.5;;
15498;SDS011;7851;52.260;6.030;2022-11-20T02:09:29;8.4;;;7.5;;
15498;SDS011;7851;52.260;6.030;2022-11-20T02:10:29;8.5;;;7.5;;
15498;SDS011;7851;52.260;6.030;2022-11-20T02:11:29;9.9;;;8.8;;
15498;SDS011;7851;52.260;6.030;2022-11-20T02:12:29;9.3;;;8.2;;
15498;SDS011;7851;52.260;6.030;2022-11-20T02:13:29;10.1;;;8.2;;
15498;SDS011;7851;52.260;6.030;2022-11-20T02:14:29;9.8;;;8.8;;
15498;SDS011;7851;52.260;6.030;2022-11-20T02:15:29;7.9;;;7.1;;
15498;SDS011;7851;52.260;6.030;2022-11-20T02:16:30;9.8;;;7.8;;
15498;SDS011;7851;52.260;6.030;2022-11-20T02:17:29;8.4;;;7.6;;
15498;SDS011;7851;52.260;6.030;2022-11-20T02:18:29;10;;;8.1;;
15498;SDS011;7851;52.260;6.030;2022-11-20T02:19:30;9.3;;;8.4;;
15498;SDS011;7851;52.260;6.030;2022-11-20T02:20:29;10.7;;;8.7;;
15498;SDS011;7851;52.260;6.030;2022-11-20T02:21:32;8.9;;;8;;
15498;SDS011;7851;52.260;6.030;2022-11-20T02:22:31;8.9;;;8;;
15498;SDS011;7851;52.260;6.030;2022-11-20T02:23:31;10;;;8.9;;
15498;SDS011;7851;52.260;6.030;2022-11-20T02:24:29;9.2;;;8.3;;
15498;SDS011;7851;52.260;6.030;2022-11-20T02:25:29;8.7;;;7.8;;
15498;SDS011;7851;52.260;6.030;2022-11-20T02:26:30;10.4;;;7.9;;
15498;SDS011;7851;52.260;6.030;2022-11-20T02:27:29;7.7;;;7;;
15498;SDS011;7851;52.260;6.030;2022-11-20T02:28:29;10.2;;;8.5;;
15498;SDS011;7851;52.260;6.030;2022-11-20T02:29:31;10.1;;;8.2;;
15498;SDS011;7851;52.260;6.030;2022-11-20T02:30:29;9.8;;;8.5;;
15498;SDS011;7851;52.260;6.030;2022-11-20T02:31:33;12.2;;;9.3;;
15498;SDS011;7851;52.260;6.030;2022-11-20T02:32:30;9.5;;;8.5;;
15498;SDS011;7851;52.260;6.030;2022-11-20T02:33:29;11.6;;;8.7;;
15498;SDS011;7851;52.260;6.030;2022-11-20T02:34:29;10.2;;;9;;
15498;SDS011;7851;52.260;6.030;2022-11-20T02:35:45;10.9;;;8.7;;
15498;SDS011;7851;52.260;6.030;2022-11-20T02:36:29;8.5;;;7.7;;
15498;SDS011;7851;52.260;6.030;2022-11-20T02:37:30;10.1;;;8.4;;
15498;SDS011;7851;52.260;6.030;2022-11-20T02:38:29;10.2;;;8.5;;
15498;SDS011;7851;52.260;6.030;2022-11-20T02:39:29;10.2;;;9.2;;
15498;SDS011;7851;52.260;6.030;2022-11-20T02:40:29;13.3;;;7.9;;
15498;SDS011;7851;52.260;6.030;2022-11-20T02:41:31;11.7;;;8.2;;
15498;SDS011;7851;52.260;6.030;2022-11-20T02:42:29;8.6;;;7.7;;
15498;SDS011;7851;52.260;6.030;2022-11-20T02:43:29;9.6;;;8.6;;
15498;SDS011;7851;52.260;6.030;2022-11-20T02:44:29;10.1;;;8.7;;
15498;SDS011;7851;52.260;6.030;2022-11-20T02:45:29;11.2;;;9.3;;
15498;SDS011;7851;52.260;6.030;2022-11-20T02:46:29;9.8;;;8.8;;
15498;SDS011;7851;52.260;6.030;2022-11-20T02:47:29;9.3;;;7.6;;
15498;SDS011;7851;52.260;6.030;2022-11-20T02:48:29;8.9;;;8;;
15498;SDS011;7851;52.260;6.030;2022-11-20T02:49:29;12.4;;;8.4;;
15498;SDS011;7851;52.260;6.030;2022-11-20T02:50:29;9.8;;;8.2;;
15498;SDS011;7851;52.260;6.030;2022-11-20T02:51:29;9.6;;;8.4;;
15498;SDS011;7851;52.260;6.030;2022-11-20T02:52:29;9.6;;;8.4;;
15498;SDS011;7851;52.260;6.030;2022-11-20T02:53:29;8.8;;;8;;
15498;SDS011;7851;52.260;6.030;2022-11-20T02:54:29;18.8;;;8.5;;
15498;SDS011;7851;52.260;6.030;2022-11-20T02:55:29;10.8;;;8.8;;
15498;SDS011;7851;52.260;6.030;2022-11-20T02:56:29;10.3;;;8.4;;
15498;SDS011;7851;52.260;6.030;2022-11-20T02:57:29;9.1;;;8.3;;
15498;SDS011;7851;52.260;6.030;2022-11-20T02:58:29;9;;;8.1;;
15498;SDS011;7851;52.260;6.030;2022-11-20T02:59:29;10.3;;;8.1;;
15498;SDS011;7851;52.260;6.030;2022-11-20T03:00:29;9.6;;;8.2;;
15498;SDS011;7851;52.260;6.030;2022-11-20T03:01:29;10.5;;;8.1;;
15498;SDS011;7851;52.260;6.030;2022-11-20T03:02:29;9;;;8.1;;
15498;SDS011;7851;52.260;6.030;2022-11-20T03:03:29;10.8;;;9;;
15498;SDS011;7851;52.260;6.030;2022-11-20T03:04:29;11;;;9;;
15498;SDS011;7851;52.260;6.030;2022-11-20T03:05:29;11.1;;;8.2;;
15498;SDS011;7851;52.260;6.030;2022-11-20T03:06:29;14;;;8.8;;
15498;SDS011;7851;52.260;6.030;2022-11-20T03:07:30;9.8;;;8.6;;
15498;SDS011;7851;52.260;6.030;2022-11-20T03:08:29;12;;;7.3;;
15498;SDS011;7851;52.260;6.030;2022-11-20T03:09:29;8.3;;;7.5;;
15498;SDS011;7851;52.260;6.030;2022-11-20T03:10:29;12.9;;;8.2;;
15498;SDS011;7851;52.260;6.030;2022-11-20T03:11:29;8.9;;;7.2;;
15498;SDS011;7851;52.260;6.030;2022-11-20T03:12:29;12;;;8.6;;
15498;SDS011;7851;52.260;6.030;2022-11-20T03:13:29;8.7;;;7.6;;
15498;SDS011;7851;52.260;6.030;2022-11-20T03:14:29;9.5;;;8.2;;
15498;SDS011;7851;52.260;6.030;2022-11-20T03:15:29;8.4;;;7.5;;
15498;SDS011;7851;52.260;6.030;2022-11-20T03:16:30;9;;;8;;
15498;SDS011;7851;52.260;6.030;2022-11-20T03:17:29;9.4;;;8.1;;
15498;SDS011;7851;52.260;6.030;2022-11-20T03:18:30;8.5;;;7.5;;
15498;SDS011;7851;52.260;6.030;2022-11-20T03:19:29;9.7;;;8.1;;
15498;SDS011;7851;52.260;6.030;2022-11-20T03:20:29;9.9;;;7.5;;
15498;SDS011;7851;52.260;6.030;2022-11-20T03:21:29;10.2;;;8.1;;
15498;SDS011;7851;52.260;6.030;2022-11-20T03:22:29;7.7;;;7;;
15498;SDS011;7851;52.260;6.030;2022-11-20T03:23:30;9.7;;;7.8;;
15498;SDS011;7851;52.260;6.030;2022-11-20T03:24:29;11;;;8.1;;
15498;SDS011;7851;52.260;6.030;2022-11-20T03:25:29;8.6;;;7.7;;
15498;SDS011;7851;52.260;6.030;2022-11-20T03:26:29;8.7;;;7.5;;
15498;SDS011;7851;52.260;6.030;2022-11-20T03:27:31;9;;;7.9;;
15498;SDS011;7851;52.260;6.030;2022-11-20T03:28:29;9.5;;;7.8;;
15498;SDS011;7851;52.260;6.030;2022-11-20T03:29:29;8.7;;;7.2;;
15498;SDS011;7851;52.260;6.030;2022-11-20T03:30:29;9.3;;;7.7;;
15498;SDS011;7851;52.260;6.030;2022-11-20T03:31:30;8.3;;;7.1;;
15498;SDS011;7851;52.260;6.030;2022-11-20T03:32:29;9.5;;;7.5;;
15498;SDS011;7851;52.260;6.030;2022-11-20T03:33:29;7.9;;;7.1;;
15498;SDS011;7851;52.260;6.030;2022-11-20T03:34:29;9.1;;;7.8;;
15498;SDS011;7851;52.260;6.030;2022-11-20T03:35:29;9.5;;;8.1;;
15498;SDS011;7851;52.260;6.030;2022-11-20T03:36:29;8.6;;;7.8;;
15498;SDS011;7851;52.260;6.030;2022-11-20T03:37:29;12.9;;;8.2;;
15498;SDS011;7851;52.260;6.030;2022-11-20T03:38:29;9.2;;;6.8;;
15498;SDS011;7851;52.260;6.030;2022-11-20T03:39:29;9.2;;;8.2;;
15498;SDS011;7851;52.260;6.030;2022-11-20T03:40:29;8.8;;;7.9;;
15498;SDS011;7851;52.260;6.030;2022-11-20T03:41:30;10.8;;;7.8;;
15498;SDS011;7851;52.260;6.030;2022-11-20T03:42:29;8.9;;;7.9;;
15498;SDS011;7851;52.260;6.030;2022-11-20T03:43:29;8.7;;;7.3;;
15498;SDS011;7851;52.260;6.030;2022-11-20T03:44:30;7.9;;;7.1;;
15498;SDS011;7851;52.260;6.030;2022-11-20T03:45:29;8;;;7.2;;
15498;SDS011;7851;52.260;6.030;2022-11-20T03:46:29;8.6;;;7.3;;
15498;SDS011;7851;52.260;6.030;2022-11-20T03:47:29;9.1;;;6.8;;
15498;SDS011;7851;52.260;6.030;2022-11-20T03:48:29;9.1;;;7.3;;
15498;SDS011;7851;52.260;6.030;2022-11-20T03:49:29;10.4;;;7.8;;
15498;SDS011;7851;52.260;6.030;2022-11-20T03:50:29;7.7;;;6.9;;
15498;SDS011;7851;52.260;6.030;2022-11-20T03:51:30;7.7;;;7;;
15498;SDS011;7851;52.260;6.030;2022-11-20T03:52:29;8.4;;;7.5;;
15498;SDS011;7851;52.260;6.030;2022-11-20T03:53:29;10.3;;;7.3;;
15498;SDS011;7851;52.260;6.030;2022-11-20T03:54:29;10.6;;;8;;
15498;SDS011;7851;52.260;6.030;2022-11-20T03:55:30;8.2;;;7;;
15498;SDS011;7851;52.260;6.030;2022-11-20T03:56:30;8;;;7.2;;
15498;SDS011;7851;52.260;6.030;2022-11-20T03:57:29;9.4;;;8;;
15498;SDS011;7851;52.260;6.030;2022-11-20T03:58:29;10.4;;;7.2;;
15498;SDS011;7851;52.260;6.030;2022-11-20T03:59:29;7.8;;;7;;
15498;SDS011;7851;52.260;6.030;2022-11-20T04:00:29;16;;;7.1;;
15498;SDS011;7851;52.260;6.030;2022-11-20T04:01:30;10.2;;;7.5;;
15498;SDS011;7851;52.260;6.030;2022-11-20T04:02:29;10.1;;;8.2;;
15498;SDS011;7851;52.260;6.030;2022-11-20T04:03:29;7.9;;;7.1;;
15498;SDS011;7851;52.260;6.030;2022-11-20T04:04:29;8.5;;;7.6;;
15498;SDS011;7851;52.260;6.030;2022-11-20T04:05:29;8.8;;;7.3;;
15498;SDS011;7851;52.260;6.030;2022-11-20T04:06:29;9.1;;;7.9;;
15498;SDS011;7851;52.260;6.030;2022-11-20T04:07:29;8.8;;;7.7;;
15498;SDS011;7851;52.260;6.030;2022-11-20T04:08:29;8.3;;;7.1;;
15498;SDS011;7851;52.260;6.030;2022-11-20T04:09:29;9.1;;;8.1;;
15498;SDS011;7851;52.260;6.030;2022-11-20T04:10:29;8.4;;;7.6;;
15498;SDS011;7851;52.260;6.030;2022-11-20T04:11:30;10.6;;;8.6;;
15498;SDS011;7851;52.260;6.030;2022-11-20T04:12:31;7.5;;;6.8;;
15498;SDS011;7851;52.260;6.030;2022-11-20T04:13:29;12.5;;;8.8;;
15498;SDS011;7851;52.260;6.030;2022-11-20T04:14:29;9;;;7.4;;
15498;SDS011;7851;52.260;6.030;2022-11-20T04:15:29;7.8;;;7;;
15498;SDS011;7851;52.260;6.030;2022-11-20T04:16:30;7.8;;;7;;
15498;SDS011;7851;52.260;6.030;2022-11-20T04:17:29;9.2;;;7.3;;
15498;SDS011;7851;52.260;6.030;2022-11-20T04:18:29;9.6;;;7.4;;
15498;SDS011;7851;52.260;6.030;2022-11-20T04:19:30;8.6;;;7.7;;
15498;SDS011;7851;52.260;6.030;2022-11-20T04:20:29;8.2;;;6.9;;
15498;SDS011;7851;52.260;6.030;2022-11-20T04:21:30;7.8;;;7;;
15498;SDS011;7851;52.260;6.030;2022-11-20T04:22:29;9.8;;;8;;
15498;SDS011;7851;52.260;6.030;2022-11-20T04:23:29;8.4;;;7.3;;
15498;SDS011;7851;52.260;6.030;2022-11-20T04:24:29;8.6;;;7.5;;
15498;SDS011;7851;52.260;6.030;2022-11-20T04:25:29;10.1;;;8.1;;
15498;SDS011;7851;52.260;6.030;2022-11-20T04:26:29;9.6;;;8.1;;
15498;SDS011;7851;52.260;6.030;2022-11-20T04:27:30;9.4;;;7.6;;
15498;SDS011;7851;52.260;6.030;2022-11-20T04:28:29;10.5;;;7.4;;
15498;SDS011;7851;52.260;6.030;2022-11-20T04:29:29;7.8;;;6.7;;
15498;SDS011;7851;52.260;6.030;2022-11-20T04:30:29;7.6;;;6.8;;
15498;SDS011;7851;52.260;6.030;2022-11-20T04:31:30;7.8;;;7;;
15498;SDS011;7851;52.260;6.030;2022-11-20T04:32:29;7.7;;;6.9;;
15498;SDS011;7851;52.260;6.030;2022-11-20T04:33:29;8.4;;;7.4;;
15498;SDS011;7851;52.260;6.030;2022-11-20T04:34:29;8.2;;;7.4;;
15498;SDS011;7851;52.260;6.030;2022-11-20T04:35:29;7.8;;;7;;
15498;SDS011;7851;52.260;6.030;2022-11-20T04:36:29;7.2;;;6.6;;
15498;SDS011;7851;52.260;6.030;2022-11-20T04:37:29;7;;;6.3;;
15498;SDS011;7851;52.260;6.030;2022-11-20T04:38:29;8.9;;;6.7;;
15498;SDS011;7851;52.260;6.030;2022-11-20T04:39:29;7.8;;;7;;
15498;SDS011;7851;52.260;6.030;2022-11-20T04:40:29;7.8;;;7;;
15498;SDS011;7851;52.260;6.030;2022-11-20T04:41:30;8.3;;;7.5;;
15498;SDS011;7851;52.260;6.030;2022-11-20T04:42:29;7.6;;;6.9;;
15498;SDS011;7851;52.260;6.030;2022-11-20T04:43:29;10.2;;;7.4;;
15498;SDS011;7851;52.260;6.030;2022-11-20T04:44:29;9.6;;;7.2;;
15498;SDS011;7851;52.260;6.030;2022-11-20T04:45:29;7.3;;;6.7;;
15498;SDS011;7851;52.260;6.030;2022-11-20T04:46:30;6.7;;;6.1;;
15498;SDS011;7851;52.260;6.030;2022-11-20T04:47:29;9.1;;;6.5;;
15498;SDS011;7851;52.260;6.030;2022-11-20T04:48:29;10.3;;;7.4;;
15498;SDS011;7851;52.260;6.030;2022-11-20T04:49:29;9.4;;;7.2;;
15498;SDS011;7851;52.260;6.030;2022-11-20T04:50:29;7.9;;;7.1;;
15498;SDS011;7851;52.260;6.030;2022-11-20T04:51:29;7.8;;;7;;
15498;SDS011;7851;52.260;6.030;2022-11-20T04:52:29;7.8;;;6.9;;
15498;SDS011;7851;52.260;6.030;2022-11-20T04:53:29;7;;;6.1;;
15498;SDS011;7851;52.260;6.030;2022-11-20T04:54:29;9.2;;;7;;
15498;SDS011;7851;52.260;6.030;2022-11-20T04:55:29;8;;;7.1;;
15498;SDS011;7851;52.260;6.030;2022-11-20T04:56:29;8.5;;;7.7;;
15498;SDS011;7851;52.260;6.030;2022-11-20T04:57:29;9.4;;;7.2;;
15498;SDS011;7851;52.260;6.030;2022-11-20T04:58:29;8.3;;;7.4;;
15498;SDS011;7851;52.260;6.030;2022-11-20T04:59:29;7.7;;;6.7;;
15498;SDS011;7851;52.260;6.030;2022-11-20T05:00:29;9.9;;;6.8;;
15498;SDS011;7851;52.260;6.030;2022-11-20T05:01:29;12.7;;;6.8;;
15498;SDS011;7851;52.260;6.030;2022-11-20T05:02:30;8.1;;;7.2;;
15498;SDS011;7851;52.260;6.030;2022-11-20T05:03:29;8.4;;;7.2;;
15498;SDS011;7851;52.260;6.030;2022-11-20T05:04:29;7.7;;;6.7;;
15498;SDS011;7851;52.260;6.030;2022-11-20T05:05:29;6.4;;;5.8;;
15498;SDS011;7851;52.260;6.030;2022-11-20T05:06:31;7.7;;;6.7;;
15498;SDS011;7851;52.260;6.030;2022-11-20T05:07:29;8.2;;;6.3;;
15498;SDS011;7851;52.260;6.030;2022-11-20T05:08:29;7.2;;;6.5;;
15498;SDS011;7851;52.260;6.030;2022-11-20T05:09:29;7.9;;;7.1;;
15498;SDS011;7851;52.260;6.030;2022-11-20T05:10:29;8.6;;;6.5;;
15498;SDS011;7851;52.260;6.030;2022-11-20T05:11:29;8.3;;;7.4;;
15498;SDS011;7851;52.260;6.030;2022-11-20T05:12:29;10.1;;;7.4;;
15498;SDS011;7851;52.260;6.030;2022-11-20T05:13:29;7.7;;;6.9;;
15498;SDS011;7851;52.260;6.030;2022-11-20T05:14:29;7.1;;;6.4;;
15498;SDS011;7851;52.260;6.030;2022-11-20T05:15:29;7.5;;;6.7;;
15498;SDS011;7851;52.260;6.030;2022-11-20T05:16:29;8.3;;;6.7;;
15498;SDS011;7851;52.260;6.030;2022-11-20T05:17:29;7.8;;;6.7;;
15498;SDS011;7851;52.260;6.030;2022-11-20T05:18:29;7.6;;;6.8;;
15498;SDS011;7851;52.260;6.030;2022-11-20T05:19:29;7.7;;;6.9;;
15498;SDS011;7851;52.260;6.030;2022-11-20T05:20:29;7.9;;;6.9;;
15498;SDS011;7851;52.260;6.030;2022-11-20T05:21:29;10;;;7.5;;
15498;SDS011;7851;52.260;6.030;2022-11-20T05:22:29;8.1;;;7.2;;
15498;SDS011;7851;52.260;6.030;2022-11-20T05:23:29;11.1;;;7.8;;
15498;SDS011;7851;52.260;6.030;2022-11-20T05:24:29;8.8;;;8;;
15498;SDS011;7851;52.260;6.030;2022-11-20T05:25:29;9.2;;;7.9;;
15498;SDS011;7851;52.260;6.030;2022-11-20T05:26:29;12.7;;;7.8;;
15498;SDS011;7851;52.260;6.030;2022-11-20T05:27:29;8.6;;;7.7;;
15498;SDS011;7851;52.260;6.030;2022-11-20T05:28:29;9;;;8;;
15498;SDS011;7851;52.260;6.030;2022-11-20T05:29:29;8;;;7.2;;
15498;SDS011;7851;52.260;6.030;2022-11-20T05:30:29;12.9;;;8.4;;
15498;SDS011;7851;52.260;6.030;2022-11-20T05:31:29;8.1;;;7.1;;
15498;SDS011;7851;52.260;6.030;2022-11-20T05:32:29;10.3;;;7.9;;
15498;SDS011;7851;52.260;6.030;2022-11-20T05:33:29;8.5;;;7;;
15498;SDS011;7851;52.260;6.030;2022-11-20T05:34:29;12;;;7.6;;
15498;SDS011;7851;52.260;6.030;2022-11-20T05:35:29;8.6;;;7.5;;
15498;SDS011;7851;52.260;6.030;2022-11-20T05:36:29;13.1;;;8.6;;
15498;SDS011;7851;52.260;6.030;2022-11-20T05:37:29;9.3;;;8.2;;
15498;SDS011;7851;52.260;6.030;2022-11-20T05:38:29;11.8;;;8.6;;
15498;SDS011;7851;52.260;6.030;2022-11-20T05:39:29;9.2;;;7.5;;
15498;SDS011;7851;52.260;6.030;2022-11-20T05:40:29;9.4;;;7.9;;
15498;SDS011;7851;52.260;6.030;2022-11-20T05:41:29;12.5;;;8.3;;
15498;SDS011;7851;52.260;6.030;2022-11-20T05:42:29;9.5;;;8.1;;
15498;SDS011;7851;52.260;6.030;2022-11-20T05:43:31;9.2;;;8;;
15498;SDS011;7851;52.260;6.030;2022-11-20T05:44:29;10.4;;;8.4;;
15498;SDS011;7851;52.260;6.030;2022-11-20T05:45:29;10;;;8;;
15498;SDS011;7851;52.260;6.030;2022-11-20T05:46:29;8.9;;;8;;
15498;SDS011;7851;52.260;6.030;2022-11-20T05:47:31;9.3;;;7.9;;
15498;SDS011;7851;52.260;6.030;2022-11-20T05:48:29;9.5;;;7.8;;
15498;SDS011;7851;52.260;6.030;2022-11-20T05:49:29;9.4;;;7.7;;
15498;SDS011;7851;52.260;6.030;2022-11-20T05:50:29;8.2;;;7.4;;
15498;SDS011;7851;52.260;6.030;2022-11-20T05:51:29;8;;;7.3;;
15498;SDS011;7851;52.260;6.030;2022-11-20T05:52:29;8.3;;;7.4;;
15498;SDS011;7851;52.260;6.030;2022-11-20T05:53:29;9.9;;;7.4;;
15498;SDS011;7851;52.260;6.030;2022-11-20T05:54:29;10.1;;;7.4;;
15498;SDS011;7851;52.260;6.030;2022-11-20T05:55:29;8.2;;;7.4;;
15498;SDS011;7851;52.260;6.030;2022-11-20T05:56:29;7.5;;;6.8;;
15498;SDS011;7851;52.260;6.030;2022-11-20T05:57:30;7.3;;;6.6;;
15498;SDS011;7851;52.260;6.030;2022-11-20T05:58:30;10.2;;;7.2;;
15498;SDS011;7851;52.260;6.030;2022-11-20T05:59:29;8;;;7.2;;
15498;SDS011;7851;52.260;6.030;2022-11-20T06:00:29;7.7;;;6.8;;
15498;SDS011;7851;52.260;6.030;2022-11-20T06:01:29;9.2;;;7.4;;
15498;SDS011;7851;52.260;6.030;2022-11-20T06:02:30;8;;;7.2;;
15498;SDS011;7851;52.260;6.030;2022-11-20T06:03:29;9.5;;;7.7;;
15498;SDS011;7851;52.260;6.030;2022-11-20T06:04:29;10.8;;;7.7;;
15498;SDS011;7851;52.260;6.030;2022-11-20T06:05:29;10;;;7.1;;
15498;SDS011;7851;52.260;6.030;2022-11-20T06:06:29;10.3;;;7.9;;
15498;SDS011;7851;52.260;6.030;2022-11-20T06:07:29;8;;;7.1;;
15498;SDS011;7851;52.260;6.030;2022-11-20T06:08:29;10.6;;;7.1;;
15498;SDS011;7851;52.260;6.030;2022-11-20T06:09:29;8.2;;;7.2;;
15498;SDS011;7851;52.260;6.030;2022-11-20T06:10:29;8.5;;;7.1;;
15498;SDS011;7851;52.260;6.030;2022-11-20T06:11:29;7.5;;;6.8;;
15498;SDS011;7851;52.260;6.030;2022-11-20T06:12:31;9.1;;;6.2;;
15498;SDS011;7851;52.260;6.030;2022-11-20T06:13:29;7.7;;;6.9;;
15498;SDS011;7851;52.260;6.030;2022-11-20T06:14:29;7.3;;;6.5;;
15498;SDS011;7851;52.260;6.030;2022-11-20T06:15:29;9;;;7.2;;
15498;SDS011;7851;52.260;6.030;2022-11-20T06:16:29;9.2;;;7;;
15498;SDS011;7851;52.260;6.030;2022-11-20T06:17:29;7.9;;;7.2;;
15498;SDS011;7851;52.260;6.030;2022-11-20T06:18:29;7.8;;;7;;
15498;SDS011;7851;52.260;6.030;2022-11-20T06:19:29;8.6;;;7.2;;
15498;SDS011;7851;52.260;6.030;2022-11-20T06:20:29;13;;;6.6;;